PST,Max TemperatureF,Mean TemperatureF,Min TemperatureF,Max Dew PointF,MeanDew PointF,Min DewpointF,Max Humidity, Mean Humidity, Min Humidity, Max Sea Level PressureIn, Mean Sea Level PressureIn, Min Sea Level PressureIn, Max VisibilityMiles, Mean VisibilityMiles, Min VisibilityMiles, Max Wind SpeedMPH, Mean Wind SpeedMPH, Max Gust SpeedMPH,PrecipitationIn, CloudCover, Events, WindDirDegrees
2012-2-1,48,44,41,48,46,41,100,100,100,30.35,30.20,29.99,10,9,1,16,10,24,0.00,8,Rain,198
2012-2-2,50,41,32,45,38,32,100,83,66,30.47,30.39,30.30,10,10,10,18,7,26,0.00,2,,47
2012-2-3,46,42,37,37,37,34,100,85,70,30.30,30.27,30.23,10,10,10,24,21,37,0.00,1,,29
2012-2-4,42,38,35,36,35,32,100,88,66,30.29,30.27,30.23,10,10,10,23,17,33,0.00,5,,36
2012-2-5,44,37,30,36,34,30,100,83,71,30.33,30.28,30.22,10,10,10,17,5,24,0.00,6,,53
2012-2-6,41,37,33,34,34,34,100,86,76,30.17,30.12,30.06,10,10,10,25,20,39,0.00,1,,38
2012-2-7,50,42,33,34,33,32,100,78,54,30.04,30.02,30.01,10,10,10,20,16,32,0.00,8,,43
2012-2-8,41,38,35,41,39,36,100,100,100,30.33,30.27,30.19,7,6,3,7,3,,0.00,8,Rain,188
2012-2-9,44,42,39,45,41,39,100,100,100,30.36,30.32,30.26,10,8,2,16,7,22,0.00,8,Rain,46
2012-2-10,44,42,41,45,43,41,100,100,100,30.13,30.09,30.06,7,5,2,6,4,,0.00,8,Rain,30
2012-2-11,50,44,39,50,45,39,100,96,76,30.21,30.18,30.16,10,9,4,9,4,,0.00,7,,216
2012-2-12,50,41,32,46,40,32,100,92,71,30.08,29.98,29.88,10,8,0,5,2,,0.00,8,Fog,196
2012-2-13,46,42,39,46,42,39,100,100,100,30.08,30.02,29.97,10,10,10,10,4,,0.00,8,Rain,199
2012-2-14,41,39,37,41,39,37,100,100,100,30.04,30.00,29.97,10,7,4,7,3,,0.00,8,Rain,203
2012-2-15,44,38,33,43,39,34,100,97,87,30.41,30.37,30.33,10,10,10,10,3,,0.00,6,,192
2012-2-16,50,42,33,50,41,34,100,100,100,30.34,30.30,30.27,10,8,2,5,2,,0.00,8,Rain,315
2012-2-17,44,42,41,45,42,41,100,100,100,30.24,30.16,30.00,10,6,1,4,2,,0.00,8,Rain,216
2012-2-18,42,42,41,43,42,41,100,100,100,30.14,30.13,30.12,10,8,6,14,11,22,0.00,8,Rain,220
2012-2-19,44,40,37,43,40,37,100,93,76,30.17,30.14,30.06,10,10,7,7,4,,0.00,8,,219
2012-2-20,42,38,35,43,40,36,100,100,100,30.06,30.02,29.95,6,3,2,2,2,,0.00,8,Rain,27
2012-2-21,51,50,48,52,50,48,100,100,100,30.21,30.17,30.15,10,3,2,21,14,31,0.00,8,Rain,212
2012-2-22,50,48,46,50,47,41,100,93,81,30.31,30.21,30.09,10,7,1,16,13,24,0.00,8,Rain,205
2012-2-23,48,44,39,46,41,37,100,89,66,30.48,30.43,30.35,10,9,7,10,7,,0.00,8,Rain,199
2012-2-24,51,44,37,46,41,37,100,83,62,30.22,30.01,29.74,10,10,7,6,2,,0.00,5,Rain,184
2012-2-25,37,36,35,37,36,36,100,100,100,30.15,30.10,30.02,2,2,1,18,16,26,0.00,8,Rain-Snow,214
2012-2-26,41,38,35,41,38,36,100,100,100,30.23,30.20,30.11,9,6,4,9,6,,0.00,8,Rain,193
2012-2-27,44,38,32,36,32,28,100,75,57,30.19,30.15,30.07,10,10,10,15,9,22,0.00,4,,36
2012-2-28,39,34,30,34,31,28,100,84,65,30.12,29.88,29.68,10,8,1,9,3,,0.00,8,Snow,40
2012-2-29,39,36,32,39,36,32,100,100,100,29.83,29.76,29.68,10,8,6,7,4,,0.00,8,Rain,172